sensor_id;sensor_type;location;lat;lon;timestamp;temperature;humidity
2112;DHT22;1062;52.538;13.400;2024-03-07T00:02:19;6.10;99.90
2112;DHT22;1062;52.538;13.400;2024-03-07T00:04:45;6.10;99.90
2112;DHT22;1062;52.538;13.400;2024-03-07T00:07:11;6.10;99.90
2112;DHT22;1062;52.538;13.400;2024-03-07T00:09:36;6.10;99.90
2112;DHT22;1062;52.538;13.400;2024-03-07T00:12:03;6.20;99.90
2112;DHT22;1062;52.538;13.400;2024-03-07T00:14:28;6.20;99.90
2112;DHT22;1062;52.538;13.400;2024-03-07T00:16:58;6.20;99.90
2112;DHT22;1062;52.538;13.400;2024-03-07T00:19:27;6.10;99.90
2112;DHT22;1062;52.538;13.400;2024-03-07T00:21:53;6.10;99.90
2112;DHT22;1062;52.538;13.400;2024-03-07T00:24:20;6.10;99.90
2112;DHT22;1062;52.538;13.400;2024-03-07T00:26:46;6.10;99.90
2112;DHT22;1062;52.538;13.400;2024-03-07T00:29:12;6.10;99.90
2112;DHT22;1062;52.538;13.400;2024-03-07T00:31:37;6.10;99.90
2112;DHT22;1062;52.538;13.400;2024-03-07T00:34:03;6.10;99.90
2112;DHT22;1062;52.538;13.400;2024-03-07T00:36:28;6.10;99.90
2112;DHT22;1062;52.538;13.400;2024-03-07T00:38:54;6.10;99.90
2112;DHT22;1062;52.538;13.400;2024-03-07T00:41:19;6.20;99.90
2112;DHT22;1062;52.538;13.400;2024-03-07T00:43:46;6.10;99.90
2112;DHT22;1062;52.538;13.400;2024-03-07T00:46:12;6.20;99.90
2112;DHT22;1062;52.538;13.400;2024-03-07T00:48:37;6.10;99.90
2112;DHT22;1062;52.538;13.400;2024-03-07T00:51:05;6.10;99.90
2112;DHT22;1062;52.538;13.400;2024-03-07T00:53:31;6.10;99.90
2112;DHT22;1062;52.538;13.400;2024-03-07T00:55:57;6.10;99.90
2112;DHT22;1062;52.538;13.400;2024-03-07T00:58:22;6.10;99.90
2112;DHT22;1062;52.538;13.400;2024-03-07T01:00:48;6.10;99.90
2112;DHT22;1062;52.538;13.400;2024-03-07T01:03:15;6.10;99.90
2112;DHT22;1062;52.538;13.400;2024-03-07T01:05:43;6.10;99.90
2112;DHT22;1062;52.538;13.400;2024-03-07T01:08:09;6.10;99.90
2112;DHT22;1062;52.538;13.400;2024-03-07T01:10:35;6.10;99.90
2112;DHT22;1062;52.538;13.400;2024-03-07T01:13:01;6.10;99.90
2112;DHT22;1062;52.538;13.400;2024-03-07T01:15:28;6.10;99.90
2112;DHT22;1062;52.538;13.400;2024-03-07T01:17:53;6.10;99.90
2112;DHT22;1062;52.538;13.400;2024-03-07T01:20:19;6.10;99.90
2112;DHT22;1062;52.538;13.400;2024-03-07T01:22:45;6.10;99.90
2112;DHT22;1062;52.538;13.400;2024-03-07T01:25:11;6.10;99.90
2112;DHT22;1062;52.538;13.400;2024-03-07T01:27:38;6.10;99.90
2112;DHT22;1062;52.538;13.400;2024-03-07T01:30:04;6.00;99.90
2112;DHT22;1062;52.538;13.400;2024-03-07T01:32:33;6.00;99.90
2112;DHT22;1062;52.538;13.400;2024-03-07T01:34:59;6.00;99.90
2112;DHT22;1062;52.538;13.400;2024-03-07T01:37:24;6.00;99.90
2112;DHT22;1062;52.538;13.400;2024-03-07T01:39:50;6.00;99.90
2112;DHT22;1062;52.538;13.400;2024-03-07T01:42:15;5.90;99.90
2112;DHT22;1062;52.538;13.400;2024-03-07T01:44:41;6.00;99.90
2112;DHT22;1062;52.538;13.400;2024-03-07T01:47:09;5.90;99.90
2112;DHT22;1062;52.538;13.400;2024-03-07T01:49:36;5.90;99.90
2112;DHT22;1062;52.538;13.400;2024-03-07T01:52:03;5.90;99.90
2112;DHT22;1062;52.538;13.400;2024-03-07T01:54:30;5.90;99.90
2112;DHT22;1062;52.538;13.400;2024-03-07T01:56:56;5.80;99.90
2112;DHT22;1062;52.538;13.400;2024-03-07T01:59:22;5.80;99.90
2112;DHT22;1062;52.538;13.400;2024-03-07T02:01:53;5.70;99.90
2112;DHT22;1062;52.538;13.400;2024-03-07T02:04:18;5.70;99.90
2112;DHT22;1062;52.538;13.400;2024-03-07T02:06:44;5.70;99.90
2112;DHT22;1062;52.538;13.400;2024-03-07T02:09:10;5.70;99.90
2112;DHT22;1062;52.538;13.400;2024-03-07T02:11:36;5.60;99.90
2112;DHT22;1062;52.538;13.400;2024-03-07T02:14:01;5.60;99.90
2112;DHT22;1062;52.538;13.400;2024-03-07T02:16:28;5.50;99.90
2112;DHT22;1062;52.538;13.400;2024-03-07T02:18:53;5.50;99.90
2112;DHT22;1062;52.538;13.400;2024-03-07T02:21:20;5.50;99.90
2112;DHT22;1062;52.538;13.400;2024-03-07T02:23:46;5.40;99.90
2112;DHT22;1062;52.538;13.400;2024-03-07T02:26:11;5.30;99.90
2112;DHT22;1062;52.538;13.400;2024-03-07T02:28:37;5.30;99.90
2112;DHT22;1062;52.538;13.400;2024-03-07T02:31:02;5.30;99.90
2112;DHT22;1062;52.538;13.400;2024-03-07T02:33:28;5.20;99.90
2112;DHT22;1062;52.538;13.400;2024-03-07T02:35:57;5.20;99.90
2112;DHT22;1062;52.538;13.400;2024-03-07T02:38:23;5.20;99.90
2112;DHT22;1062;52.538;13.400;2024-03-07T02:40:48;5.20;99.90
2112;DHT22;1062;52.538;13.400;2024-03-07T02:43:14;5.10;99.90
2112;DHT22;1062;52.538;13.400;2024-03-07T02:45:40;5.10;99.90
2112;DHT22;1062;52.538;13.400;2024-03-07T02:48:05;5.00;99.90
2112;DHT22;1062;52.538;13.400;2024-03-07T02:50:35;5.00;99.90
2112;DHT22;1062;52.538;13.400;2024-03-07T02:53:06;5.00;99.90
2112;DHT22;1062;52.538;13.400;2024-03-07T02:55:32;4.90;99.90
2112;DHT22;1062;52.538;13.400;2024-03-07T02:57:58;4.80;99.90
2112;DHT22;1062;52.538;13.400;2024-03-07T03:00:25;4.80;99.90
2112;DHT22;1062;52.538;13.400;2024-03-07T03:02:56;4.70;99.90
2112;DHT22;1062;52.538;13.400;2024-03-07T03:05:22;4.70;99.90
2112;DHT22;1062;52.538;13.400;2024-03-07T03:07:48;4.60;99.90
2112;DHT22;1062;52.538;13.400;2024-03-07T03:10:24;4.60;99.90
2112;DHT22;1062;52.538;13.400;2024-03-07T03:12:52;4.50;99.90
2112;DHT22;1062;52.538;13.400;2024-03-07T03:15:18;4.50;99.90
2112;DHT22;1062;52.538;13.400;2024-03-07T03:17:47;4.50;99.90
2112;DHT22;1062;52.538;13.400;2024-03-07T03:20:12;4.40;99.90
2112;DHT22;1062;52.538;13.400;2024-03-07T03:22:53;4.40;99.90
2112;DHT22;1062;52.538;13.400;2024-03-07T03:25:20;4.40;99.90
2112;DHT22;1062;52.538;13.400;2024-03-07T03:27:49;4.30;99.90
2112;DHT22;1062;52.538;13.400;2024-03-07T03:30:15;4.30;99.90
2112;DHT22;1062;52.538;13.400;2024-03-07T03:32:52;4.30;99.90
2112;DHT22;1062;52.538;13.400;2024-03-07T03:35:18;4.30;99.90
2112;DHT22;1062;52.538;13.400;2024-03-07T03:37:45;4.30;99.90
2112;DHT22;1062;52.538;13.400;2024-03-07T03:40:11;4.30;99.90
2112;DHT22;1062;52.538;13.400;2024-03-07T03:42:41;4.20;99.90
2112;DHT22;1062;52.538;13.400;2024-03-07T03:45:08;4.20;99.90
2112;DHT22;1062;52.538;13.400;2024-03-07T03:47:37;4.10;99.90
2112;DHT22;1062;52.538;13.400;2024-03-07T03:50:04;4.10;99.90
2112;DHT22;1062;52.538;13.400;2024-03-07T03:52:31;4.10;99.90
2112;DHT22;1062;52.538;13.400;2024-03-07T03:54:57;4.00;99.90
2112;DHT22;1062;52.538;13.400;2024-03-07T03:57:24;4.00;99.90
2112;DHT22;1062;52.538;13.400;2024-03-07T03:59:49;4.00;99.90
2112;DHT22;1062;52.538;13.400;2024-03-07T04:02:15;3.90;99.90
2112;DHT22;1062;52.538;13.400;2024-03-07T04:04:42;3.90;99.90
2112;DHT22;1062;52.538;13.400;2024-03-07T04:07:08;3.90;99.90
2112;DHT22;1062;52.538;13.400;2024-03-07T04:09:33;3.80;99.90
2112;DHT22;1062;52.538;13.400;2024-03-07T04:11:59;3.80;99.90
2112;DHT22;1062;52.538;13.400;2024-03-07T04:14:25;3.70;99.90
2112;DHT22;1062;52.538;13.400;2024-03-07T04:16:51;3.70;99.90
2112;DHT22;1062;52.538;13.400;2024-03-07T04:19:17;3.70;99.90
2112;DHT22;1062;52.538;13.400;2024-03-07T04:21:46;3.60;99.90
2112;DHT22;1062;52.538;13.400;2024-03-07T04:24:11;3.60;99.90
2112;DHT22;1062;52.538;13.400;2024-03-07T04:26:38;3.60;99.90
2112;DHT22;1062;52.538;13.400;2024-03-07T04:29:03;3.50;99.90
2112;DHT22;1062;52.538;13.400;2024-03-07T04:31:29;3.60;99.90
2112;DHT22;1062;52.538;13.400;2024-03-07T04:33:54;3.60;99.90
2112;DHT22;1062;52.538;13.400;2024-03-07T04:36:21;3.50;99.90
2112;DHT22;1062;52.538;13.400;2024-03-07T04:38:46;3.50;99.90
2112;DHT22;1062;52.538;13.400;2024-03-07T04:41:12;3.50;99.90
2112;DHT22;1062;52.538;13.400;2024-03-07T04:43:40;3.40;99.90
2112;DHT22;1062;52.538;13.400;2024-03-07T04:46:08;3.50;99.90
2112;DHT22;1062;52.538;13.400;2024-03-07T04:48:33;3.50;99.90
2112;DHT22;1062;52.538;13.400;2024-03-07T04:50:59;3.40;99.90
2112;DHT22;1062;52.538;13.400;2024-03-07T04:53:24;3.40;99.90
2112;DHT22;1062;52.538;13.400;2024-03-07T04:55:50;3.40;99.90
2112;DHT22;1062;52.538;13.400;2024-03-07T04:58:16;3.40;99.90
2112;DHT22;1062;52.538;13.400;2024-03-07T05:00:42;3.30;99.90
2112;DHT22;1062;52.538;13.400;2024-03-07T05:03:08;3.30;99.90
2112;DHT22;1062;52.538;13.400;2024-03-07T05:05:35;3.30;99.90
2112;DHT22;1062;52.538;13.400;2024-03-07T05:08:00;3.30;99.90
2112;DHT22;1062;52.538;13.400;2024-03-07T05:10:26;3.30;99.90
2112;DHT22;1062;52.538;13.400;2024-03-07T05:12:55;3.30;99.90
2112;DHT22;1062;52.538;13.400;2024-03-07T05:15:20;3.20;99.90
2112;DHT22;1062;52.538;13.400;2024-03-07T05:17:46;3.20;99.90
2112;DHT22;1062;52.538;13.400;2024-03-07T05:20:12;3.20;99.90
2112;DHT22;1062;52.538;13.400;2024-03-07T05:22:38;3.10;99.90
2112;DHT22;1062;52.538;13.400;2024-03-07T05:25:13;3.10;99.90
2112;DHT22;1062;52.538;13.400;2024-03-07T05:27:39;3.10;99.90
2112;DHT22;1062;52.538;13.400;2024-03-07T05:30:05;3.00;99.90
2112;DHT22;1062;52.538;13.400;2024-03-07T05:32:31;3.00;99.90
2112;DHT22;1062;52.538;13.400;2024-03-07T05:34:59;3.00;99.90
2112;DHT22;1062;52.538;13.400;2024-03-07T05:37:25;3.00;99.90
2112;DHT22;1062;52.538;13.400;2024-03-07T05:39:51;3.00;99.90
2112;DHT22;1062;52.538;13.400;2024-03-07T05:42:17;3.00;99.90
2112;DHT22;1062;52.538;13.400;2024-03-07T05:44:44;3.00;99.90
2112;DHT22;1062;52.538;13.400;2024-03-07T05:47:10;3.00;99.90
2112;DHT22;1062;52.538;13.400;2024-03-07T05:49:36;2.90;99.90
2112;DHT22;1062;52.538;13.400;2024-03-07T05:52:03;2.90;99.90
2112;DHT22;1062;52.538;13.400;2024-03-07T05:54:29;2.90;99.90
2112;DHT22;1062;52.538;13.400;2024-03-07T05:56:55;2.90;99.90
2112;DHT22;1062;52.538;13.400;2024-03-07T05:59:20;3.00;99.90
2112;DHT22;1062;52.538;13.400;2024-03-07T06:01:46;3.00;99.90
2112;DHT22;1062;52.538;13.400;2024-03-07T06:04:13;3.00;99.90
2112;DHT22;1062;52.538;13.400;2024-03-07T06:06:40;3.00;99.90
2112;DHT22;1062;52.538;13.400;2024-03-07T06:09:08;3.00;99.90
2112;DHT22;1062;52.538;13.400;2024-03-07T06:11:38;3.00;99.90
2112;DHT22;1062;52.538;13.400;2024-03-07T06:14:05;3.00;99.90
2112;DHT22;1062;52.538;13.400;2024-03-07T06:16:32;3.00;99.90
2112;DHT22;1062;52.538;13.400;2024-03-07T06:18:59;3.00;99.90
2112;DHT22;1062;52.538;13.400;2024-03-07T06:21:25;3.00;99.90
2112;DHT22;1062;52.538;13.400;2024-03-07T06:23:51;3.10;99.90
2112;DHT22;1062;52.538;13.400;2024-03-07T06:29:15;3.10;99.90
2112;DHT22;1062;52.538;13.400;2024-03-07T06:31:42;3.20;99.90
2112;DHT22;1062;52.538;13.400;2024-03-07T06:34:07;3.20;99.90
2112;DHT22;1062;52.538;13.400;2024-03-07T06:36:36;3.30;99.90
2112;DHT22;1062;52.538;13.400;2024-03-07T06:39:02;3.40;99.90
2112;DHT22;1062;52.538;13.400;2024-03-07T06:41:34;3.50;99.90
2112;DHT22;1062;52.538;13.400;2024-03-07T06:44:00;3.80;99.90
2112;DHT22;1062;52.538;13.400;2024-03-07T06:46:26;4.00;99.90
2112;DHT22;1062;52.538;13.400;2024-03-07T06:48:51;4.10;99.90
2112;DHT22;1062;52.538;13.400;2024-03-07T06:51:17;4.20;99.90
2112;DHT22;1062;52.538;13.400;2024-03-07T06:53:43;4.50;99.90
2112;DHT22;1062;52.538;13.400;2024-03-07T06:56:10;4.50;99.90
2112;DHT22;1062;52.538;13.400;2024-03-07T06:58:38;5.00;99.90
2112;DHT22;1062;52.538;13.400;2024-03-07T07:01:03;5.30;99.90
2112;DHT22;1062;52.538;13.400;2024-03-07T07:03:32;5.30;99.90
2112;DHT22;1062;52.538;13.400;2024-03-07T07:05:58;5.30;99.90
2112;DHT22;1062;52.538;13.400;2024-03-07T07:08:24;5.40;99.90
2112;DHT22;1062;52.538;13.400;2024-03-07T07:10:49;5.50;99.90
2112;DHT22;1062;52.538;13.400;2024-03-07T07:13:15;5.70;99.90
2112;DHT22;1062;52.538;13.400;2024-03-07T07:15:42;6.00;99.90
2112;DHT22;1062;52.538;13.400;2024-03-07T07:18:08;6.00;99.90
2112;DHT22;1062;52.538;13.400;2024-03-07T07:20:36;6.20;99.90
2112;DHT22;1062;52.538;13.400;2024-03-07T07:23:02;6.20;99.90
2112;DHT22;1062;52.538;13.400;2024-03-07T07:25:29;6.30;99.90
2112;DHT22;1062;52.538;13.400;2024-03-07T07:27:54;6.60;99.90
2112;DHT22;1062;52.538;13.400;2024-03-07T07:30:22;6.70;99.90
2112;DHT22;1062;52.538;13.400;2024-03-07T07:32:52;6.80;99.90
2112;DHT22;1062;52.538;13.400;2024-03-07T07:35:19;6.50;99.90
2112;DHT22;1062;52.538;13.400;2024-03-07T07:37:46;6.80;99.90
2112;DHT22;1062;52.538;13.400;2024-03-07T07:40:15;7.30;99.90
2112;DHT22;1062;52.538;13.400;2024-03-07T07:42:47;7.20;99.90
2112;DHT22;1062;52.538;13.400;2024-03-07T07:45:14;7.20;99.90
2112;DHT22;1062;52.538;13.400;2024-03-07T07:47:48;7.60;99.90
2112;DHT22;1062;52.538;13.400;2024-03-07T07:50:18;8.00;99.90
2112;DHT22;1062;52.538;13.400;2024-03-07T07:55:14;7.80;99.90
2112;DHT22;1062;52.538;13.400;2024-03-07T07:57:48;7.90;99.90
2112;DHT22;1062;52.538;13.400;2024-03-07T08:00:15;8.20;99.90
2112;DHT22;1062;52.538;13.400;2024-03-07T08:02:59;8.00;99.90
2112;DHT22;1062;52.538;13.400;2024-03-07T08:05:26;8.20;99.90
2112;DHT22;1062;52.538;13.400;2024-03-07T08:07:55;7.80;99.90
2112;DHT22;1062;52.538;13.400;2024-03-07T08:10:24;8.40;99.90
2112;DHT22;1062;52.538;13.400;2024-03-07T08:12:51;9.00;99.90
2112;DHT22;1062;52.538;13.400;2024-03-07T08:15:17;8.60;99.90
2112;DHT22;1062;52.538;13.400;2024-03-07T08:17:46;9.00;99.90
2112;DHT22;1062;52.538;13.400;2024-03-07T08:20:17;9.40;99.90
2112;DHT22;1062;52.538;13.400;2024-03-07T08:22:50;9.50;99.90
2112;DHT22;1062;52.538;13.400;2024-03-07T08:25:19;9.10;99.90
2112;DHT22;1062;52.538;13.400;2024-03-07T08:27:47;9.30;99.90
2112;DHT22;1062;52.538;13.400;2024-03-07T08:30:14;9.30;99.90
2112;DHT22;1062;52.538;13.400;2024-03-07T08:32:51;9.20;99.90
2112;DHT22;1062;52.538;13.400;2024-03-07T08:35:17;9.50;99.90
2112;DHT22;1062;52.538;13.400;2024-03-07T08:37:44;9.60;99.90
2112;DHT22;1062;52.538;13.400;2024-03-07T08:40:11;9.90;99.90
2112;DHT22;1062;52.538;13.400;2024-03-07T08:42:40;11.30;99.90
2112;DHT22;1062;52.538;13.400;2024-03-07T08:45:07;11.50;99.90
2112;DHT22;1062;52.538;13.400;2024-03-07T08:47:36;11.60;99.90
2112;DHT22;1062;52.538;13.400;2024-03-07T08:50:02;11.50;99.90
2112;DHT22;1062;52.538;13.400;2024-03-07T08:52:34;11.30;99.90
2112;DHT22;1062;52.538;13.400;2024-03-07T08:55:01;11.30;99.90
2112;DHT22;1062;52.538;13.400;2024-03-07T08:57:27;10.60;99.90
2112;DHT22;1062;52.538;13.400;2024-03-07T08:59:52;11.50;99.80
2112;DHT22;1062;52.538;13.400;2024-03-07T09:02:18;11.80;98.40
2112;DHT22;1062;52.538;13.400;2024-03-07T09:04:44;11.50;96.90
2112;DHT22;1062;52.538;13.400;2024-03-07T09:07:09;10.00;98.70
2112;DHT22;1062;52.538;13.400;2024-03-07T09:09:35;9.80;99.90
2112;DHT22;1062;52.538;13.400;2024-03-07T09:12:01;9.90;99.90
2112;DHT22;1062;52.538;13.400;2024-03-07T09:14:28;10.90;97.60
2112;DHT22;1062;52.538;13.400;2024-03-07T09:16:53;10.50;96.90
2112;DHT22;1062;52.538;13.400;2024-03-07T09:19:19;11.20;96.70
2112;DHT22;1062;52.538;13.400;2024-03-07T09:21:48;11.00;94.50
2112;DHT22;1062;52.538;13.400;2024-03-07T09:24:15;10.50;95.20
2112;DHT22;1062;52.538;13.400;2024-03-07T09:26:41;10.90;95.90
2112;DHT22;1062;52.538;13.400;2024-03-07T09:29:07;11.30;95.40
2112;DHT22;1062;52.538;13.400;2024-03-07T09:31:33;12.10;94.50
2112;DHT22;1062;52.538;13.400;2024-03-07T09:33:58;12.00;92.90
2112;DHT22;1062;52.538;13.400;2024-03-07T09:36:25;11.20;92.30
2112;DHT22;1062;52.538;13.400;2024-03-07T09:38:50;10.60;93.50
2112;DHT22;1062;52.538;13.400;2024-03-07T09:41:16;10.20;94.20
2112;DHT22;1062;52.538;13.400;2024-03-07T09:43:43;9.70;94.40
2112;DHT22;1062;52.538;13.400;2024-03-07T09:46:12;9.80;96.80
2112;DHT22;1062;52.538;13.400;2024-03-07T09:48:38;10.00;94.50
2112;DHT22;1062;52.538;13.400;2024-03-07T09:51:06;10.00;94.00
2112;DHT22;1062;52.538;13.400;2024-03-07T09:53:34;9.60;94.50
2112;DHT22;1062;52.538;13.400;2024-03-07T09:56:03;9.20;94.70
2112;DHT22;1062;52.538;13.400;2024-03-07T09:58:31;9.00;94.80
2112;DHT22;1062;52.538;13.400;2024-03-07T10:01:00;8.60;95.40
2112;DHT22;1062;52.538;13.400;2024-03-07T10:03:29;8.20;94.40
2112;DHT22;1062;52.538;13.400;2024-03-07T10:05:55;7.90;95.70
2112;DHT22;1062;52.538;13.400;2024-03-07T10:08:22;7.80;95.20
2112;DHT22;1062;52.538;13.400;2024-03-07T10:10:50;7.70;95.60
2112;DHT22;1062;52.538;13.400;2024-03-07T10:13:16;7.60;96.60
2112;DHT22;1062;52.538;13.400;2024-03-07T10:15:44;7.50;97.40
2112;DHT22;1062;52.538;13.400;2024-03-07T10:18:09;7.50;97.30
2112;DHT22;1062;52.538;13.400;2024-03-07T10:20:36;7.60;98.10
2112;DHT22;1062;52.538;13.400;2024-03-07T10:23:05;7.50;97.90
2112;DHT22;1062;52.538;13.400;2024-03-07T10:25:34;7.70;96.90
2112;DHT22;1062;52.538;13.400;2024-03-07T10:28:01;7.60;96.00
2112;DHT22;1062;52.538;13.400;2024-03-07T10:30:29;7.50;95.50
2112;DHT22;1062;52.538;13.400;2024-03-07T10:32:59;7.30;95.00
2112;DHT22;1062;52.538;13.400;2024-03-07T10:35:25;7.30;94.50
2112;DHT22;1062;52.538;13.400;2024-03-07T10:37:52;7.20;94.30
2112;DHT22;1062;52.538;13.400;2024-03-07T10:40:19;7.00;94.10
2112;DHT22;1062;52.538;13.400;2024-03-07T10:42:48;7.10;94.20
2112;DHT22;1062;52.538;13.400;2024-03-07T10:45:20;7.20;94.90
2112;DHT22;1062;52.538;13.400;2024-03-07T10:47:56;7.20;94.70
2112;DHT22;1062;52.538;13.400;2024-03-07T10:50:30;7.40;94.20
2112;DHT22;1062;52.538;13.400;2024-03-07T10:53:10;7.40;94.50
2112;DHT22;1062;52.538;13.400;2024-03-07T10:55:45;7.40;93.70
2112;DHT22;1062;52.538;13.400;2024-03-07T10:58:32;7.40;94.20
2112;DHT22;1062;52.538;13.400;2024-03-07T11:01:01;7.50;94.10
2112;DHT22;1062;52.538;13.400;2024-03-07T11:03:30;7.60;93.50
2112;DHT22;1062;52.538;13.400;2024-03-07T11:05:58;7.50;93.80
2112;DHT22;1062;52.538;13.400;2024-03-07T11:08:25;7.40;94.00
2112;DHT22;1062;52.538;13.400;2024-03-07T11:10:51;7.50;94.20
2112;DHT22;1062;52.538;13.400;2024-03-07T11:13:17;7.50;93.30
2112;DHT22;1062;52.538;13.400;2024-03-07T11:15:46;7.40;93.80
2112;DHT22;1062;52.538;13.400;2024-03-07T11:18:13;7.50;93.10
2112;DHT22;1062;52.538;13.400;2024-03-07T11:20:40;7.40;92.60
2112;DHT22;1062;52.538;13.400;2024-03-07T11:23:28;7.40;93.50
2112;DHT22;1062;52.538;13.400;2024-03-07T11:26:05;7.60;94.30
2112;DHT22;1062;52.538;13.400;2024-03-07T11:28:36;7.70;94.30
2112;DHT22;1062;52.538;13.400;2024-03-07T11:34:12;7.70;93.80
2112;DHT22;1062;52.538;13.400;2024-03-07T11:36:45;7.80;94.50
2112;DHT22;1062;52.538;13.400;2024-03-07T11:39:42;7.70;94.70
2112;DHT22;1062;52.538;13.400;2024-03-07T11:42:27;7.70;93.90
2112;DHT22;1062;52.538;13.400;2024-03-07T11:44:59;7.80;94.70
2112;DHT22;1062;52.538;13.400;2024-03-07T11:47:26;7.90;94.00
2112;DHT22;1062;52.538;13.400;2024-03-07T11:49:55;7.70;92.90
2112;DHT22;1062;52.538;13.400;2024-03-07T11:52:26;7.70;93.90
2112;DHT22;1062;52.538;13.400;2024-03-07T11:54:53;7.70;95.10
2112;DHT22;1062;52.538;13.400;2024-03-07T11:57:19;7.80;95.10
2112;DHT22;1062;52.538;13.400;2024-03-07T11:59:46;7.70;94.90
2112;DHT22;1062;52.538;13.400;2024-03-07T12:02:15;7.70;94.10
2112;DHT22;1062;52.538;13.400;2024-03-07T12:04:41;7.70;94.20
2112;DHT22;1062;52.538;13.400;2024-03-07T12:07:07;7.70;95.00
2112;DHT22;1062;52.538;13.400;2024-03-07T12:09:38;7.80;95.80
2112;DHT22;1062;52.538;13.400;2024-03-07T12:12:08;7.90;95.90
2112;DHT22;1062;52.538;13.400;2024-03-07T12:14:34;7.90;94.60
2112;DHT22;1062;52.538;13.400;2024-03-07T12:17:03;7.90;95.00
2112;DHT22;1062;52.538;13.400;2024-03-07T12:19:33;7.80;95.40
2112;DHT22;1062;52.538;13.400;2024-03-07T12:22:02;7.80;94.00
2112;DHT22;1062;52.538;13.400;2024-03-07T12:24:29;7.90;93.40
2112;DHT22;1062;52.538;13.400;2024-03-07T12:27:10;7.90;93.20
2112;DHT22;1062;52.538;13.400;2024-03-07T12:29:37;7.90;93.80
2112;DHT22;1062;52.538;13.400;2024-03-07T12:32:08;7.80;93.90
2112;DHT22;1062;52.538;13.400;2024-03-07T12:34:36;7.90;93.60
2112;DHT22;1062;52.538;13.400;2024-03-07T12:37:08;7.90;91.80
2112;DHT22;1062;52.538;13.400;2024-03-07T12:39:35;7.90;91.30
2112;DHT22;1062;52.538;13.400;2024-03-07T12:42:12;8.00;90.40
2112;DHT22;1062;52.538;13.400;2024-03-07T12:44:42;7.80;92.20
2112;DHT22;1062;52.538;13.400;2024-03-07T12:47:10;7.80;93.10
2112;DHT22;1062;52.538;13.400;2024-03-07T12:49:36;7.90;93.30
2112;DHT22;1062;52.538;13.400;2024-03-07T12:52:02;8.00;91.60
2112;DHT22;1062;52.538;13.400;2024-03-07T12:54:28;8.00;89.10
2112;DHT22;1062;52.538;13.400;2024-03-07T12:56:54;8.10;87.40
2112;DHT22;1062;52.538;13.400;2024-03-07T12:59:19;8.10;85.90
2112;DHT22;1062;52.538;13.400;2024-03-07T13:01:49;8.10;86.00
2112;DHT22;1062;52.538;13.400;2024-03-07T13:04:15;7.90;89.10
2112;DHT22;1062;52.538;13.400;2024-03-07T13:06:41;8.00;90.20
2112;DHT22;1062;52.538;13.400;2024-03-07T13:09:12;8.00;88.00
2112;DHT22;1062;52.538;13.400;2024-03-07T13:11:39;8.00;89.00
2112;DHT22;1062;52.538;13.400;2024-03-07T13:14:12;8.20;87.80
2112;DHT22;1062;52.538;13.400;2024-03-07T13:16:37;8.10;87.10
2112;DHT22;1062;52.538;13.400;2024-03-07T13:19:03;8.00;84.00
2112;DHT22;1062;52.538;13.400;2024-03-07T13:21:30;8.10;84.80
2112;DHT22;1062;52.538;13.400;2024-03-07T13:23:57;8.20;84.40
2112;DHT22;1062;52.538;13.400;2024-03-07T13:26:23;8.30;84.40
2112;DHT22;1062;52.538;13.400;2024-03-07T13:28:51;8.40;85.50
2112;DHT22;1062;52.538;13.400;2024-03-07T13:31:19;8.40;82.90
2112;DHT22;1062;52.538;13.400;2024-03-07T13:33:45;8.30;79.40
2112;DHT22;1062;52.538;13.400;2024-03-07T13:36:10;8.10;79.10
2112;DHT22;1062;52.538;13.400;2024-03-07T13:38:36;8.10;80.40
2112;DHT22;1062;52.538;13.400;2024-03-07T13:41:03;8.20;81.20
2112;DHT22;1062;52.538;13.400;2024-03-07T13:43:30;8.10;82.50
2112;DHT22;1062;52.538;13.400;2024-03-07T13:45:56;8.10;83.50
2112;DHT22;1062;52.538;13.400;2024-03-07T13:48:22;8.20;83.70
2112;DHT22;1062;52.538;13.400;2024-03-07T13:50:48;8.30;83.60
2112;DHT22;1062;52.538;13.400;2024-03-07T13:53:18;8.30;80.30
2112;DHT22;1062;52.538;13.400;2024-03-07T14:04:53;8.50;81.10
2112;DHT22;1062;52.538;13.400;2024-03-07T14:16:40;8.40;85.00
2112;DHT22;1062;52.538;13.400;2024-03-07T14:22:24;8.30;83.00
2112;DHT22;1062;52.538;13.400;2024-03-07T14:25:17;8.30;82.70
2112;DHT22;1062;52.538;13.400;2024-03-07T14:30:55;8.40;82.70
2112;DHT22;1062;52.538;13.400;2024-03-07T14:33:31;8.50;83.60
2112;DHT22;1062;52.538;13.400;2024-03-07T14:35:59;8.40;83.30
2112;DHT22;1062;52.538;13.400;2024-03-07T14:38:50;8.40;82.70
2112;DHT22;1062;52.538;13.400;2024-03-07T14:41:18;8.30;81.10
2112;DHT22;1062;52.538;13.400;2024-03-07T14:43:45;8.20;81.50
2112;DHT22;1062;52.538;13.400;2024-03-07T14:46:11;8.20;82.80
2112;DHT22;1062;52.538;13.400;2024-03-07T14:48:39;8.20;80.30
2112;DHT22;1062;52.538;13.400;2024-03-07T14:51:07;8.20;79.40
2112;DHT22;1062;52.538;13.400;2024-03-07T14:53:34;8.20;80.90
2112;DHT22;1062;52.538;13.400;2024-03-07T14:56:00;8.20;80.10
2112;DHT22;1062;52.538;13.400;2024-03-07T14:58:26;8.30;80.20
2112;DHT22;1062;52.538;13.400;2024-03-07T15:00:51;8.30;80.80
2112;DHT22;1062;52.538;13.400;2024-03-07T15:03:20;8.20;80.00
2112;DHT22;1062;52.538;13.400;2024-03-07T15:05:46;8.20;80.70
2112;DHT22;1062;52.538;13.400;2024-03-07T15:08:14;8.30;80.80
2112;DHT22;1062;52.538;13.400;2024-03-07T15:11:01;8.20;76.00
2112;DHT22;1062;52.538;13.400;2024-03-07T15:13:31;8.30;76.70
2112;DHT22;1062;52.538;13.400;2024-03-07T15:15:57;8.30;75.90
2112;DHT22;1062;52.538;13.400;2024-03-07T15:18:24;8.40;77.10
2112;DHT22;1062;52.538;13.400;2024-03-07T15:20:49;8.40;78.10
2112;DHT22;1062;52.538;13.400;2024-03-07T15:23:15;8.40;78.60
2112;DHT22;1062;52.538;13.400;2024-03-07T15:25:40;8.40;79.40
2112;DHT22;1062;52.538;13.400;2024-03-07T15:28:06;8.30;79.60
2112;DHT22;1062;52.538;13.400;2024-03-07T15:30:33;8.20;80.70
2112;DHT22;1062;52.538;13.400;2024-03-07T15:33:02;8.10;81.50
2112;DHT22;1062;52.538;13.400;2024-03-07T15:35:29;8.10;81.90
2112;DHT22;1062;52.538;13.400;2024-03-07T15:37:56;8.00;82.10
2112;DHT22;1062;52.538;13.400;2024-03-07T15:40:22;8.00;82.30
2112;DHT22;1062;52.538;13.400;2024-03-07T15:42:49;7.90;82.80
2112;DHT22;1062;52.538;13.400;2024-03-07T15:45:20;7.90;82.90
2112;DHT22;1062;52.538;13.400;2024-03-07T15:47:49;7.80;83.00
2112;DHT22;1062;52.538;13.400;2024-03-07T15:50:16;7.90;83.70
2112;DHT22;1062;52.538;13.400;2024-03-07T15:52:45;7.90;84.50
2112;DHT22;1062;52.538;13.400;2024-03-07T15:55:11;7.90;84.70
2112;DHT22;1062;52.538;13.400;2024-03-07T15:57:44;7.90;85.30
2112;DHT22;1062;52.538;13.400;2024-03-07T16:00:15;7.90;85.20
2112;DHT22;1062;52.538;13.400;2024-03-07T16:05:25;7.80;86.60
2112;DHT22;1062;52.538;13.400;2024-03-07T16:07:51;7.70;87.70
2112;DHT22;1062;52.538;13.400;2024-03-07T16:10:21;7.60;88.50
2112;DHT22;1062;52.538;13.400;2024-03-07T16:12:49;7.60;88.90
2112;DHT22;1062;52.538;13.400;2024-03-07T16:15:15;7.60;89.20
2112;DHT22;1062;52.538;13.400;2024-03-07T16:17:41;7.60;89.70
2112;DHT22;1062;52.538;13.400;2024-03-07T16:20:07;7.50;90.30
2112;DHT22;1062;52.538;13.400;2024-03-07T16:22:42;7.40;90.70
2112;DHT22;1062;52.538;13.400;2024-03-07T16:25:08;7.40;91.20
2112;DHT22;1062;52.538;13.400;2024-03-07T16:27:38;7.40;91.50
2112;DHT22;1062;52.538;13.400;2024-03-07T16:30:11;7.30;91.90
2112;DHT22;1062;52.538;13.400;2024-03-07T16:32:39;7.30;92.20
2112;DHT22;1062;52.538;13.400;2024-03-07T16:35:06;7.20;92.40
2112;DHT22;1062;52.538;13.400;2024-03-07T16:37:54;7.20;93.10
2112;DHT22;1062;52.538;13.400;2024-03-07T16:40:24;7.10;92.80